Time;durP1;ratioP1;P1;durP2;ratioP2;P2;SDS_P1;SDS_P2;PMS_P1;PMS_P2;Temp;Humidity;BMP_temperature;BMP_pressure;BME280_temperature;BME280_humidity;BME280_pressure;Samples;Min_cycle;Max_cycle;Signal;HPM_P1;HPM_P2
2022/07/03 00:01:39;;;;;;;6.30;4.73;;;;;;;-141.48;100.00;69781.59;4980156;29;20030;-90
2022/07/03 00:05:09;;;;;;;5.75;5.10;;;;;;;-141.48;100.00;69781.59;4996291;29;20090;-90
2022/07/03 00:08:38;;;;;;;5.68;5.20;;;;;;;-141.48;100.00;69781.59;4995515;29;20027;-89
2022/07/03 00:12:07;;;;;;;4.47;4.07;;;;;;;-141.48;100.00;69781.59;4979270;29;20082;-90
2022/07/03 00:15:36;;;;;;;4.45;4.18;;;;;;;-141.48;100.00;69781.59;4995232;29;20237;-90
2022/07/03 00:19:06;;;;;;;4.50;4.22;;;;;;;-141.48;100.00;69781.59;4979536;29;20030;-91
2022/07/03 00:22:54;;;;;;;3.38;3.28;;;;;;;-141.48;100.00;69781.59;4978655;29;20118;-91
2022/07/03 00:26:24;;;;;;;3.83;3.70;;;;;;;-141.48;100.00;69781.59;4978809;29;20512;-90
2022/07/03 00:29:56;;;;;;;4.32;4.13;;;;;;;-141.48;100.00;69781.59;4979240;29;20057;-90
2022/07/03 00:33:27;;;;;;;3.30;3.20;;;;;;;-141.48;100.00;69781.59;4978975;29;20121;-91
2022/07/03 00:36:57;;;;;;;4.10;3.97;;;;;;;-141.48;100.00;69781.59;4979280;29;20038;-91
2022/07/03 00:40:25;;;;;;;;;;;;;;;-141.48;100.00;69781.59;4997585;29;20090;-90
2022/07/03 00:43:57;;;;;;;3.90;3.53;;;;;;;-141.48;100.00;69781.59;4979248;29;19912;-90
2022/07/03 00:47:27;;;;;;;3.60;3.42;;;;;;;-141.48;100.00;69781.59;4984908;29;20515;-61
2022/07/03 00:50:59;;;;;;;3.97;3.88;;;;;;;-141.48;100.00;69781.59;4970759;29;20050;-61
2022/07/03 00:54:34;;;;;;;4.60;4.28;;;;;;;-141.48;100.00;69781.59;4970349;29;20030;-61
2022/07/03 00:58:05;;;;;;;3.05;2.95;;;;;;;-141.48;100.00;69781.59;4987298;29;20019;-61
2022/07/03 01:01:39;;;;;;;4.32;3.15;;;;;;;-141.48;100.00;69781.59;4987265;29;20035;-61
2022/07/03 01:05:34;;;;;;;3.63;3.42;;;;;;;-141.48;100.00;69781.59;4986994;29;20098;-62
2022/07/03 01:09:13;;;;;;;4.47;4.18;;;;;;;-141.48;100.00;69781.59;4987061;29;20437;-62
2022/07/03 01:13:00;;;;;;;5.15;3.80;;;;;;;-141.48;100.00;69781.59;4987105;29;20065;-60
2022/07/03 01:16:58;;;;;;;3.53;3.42;;;;;;;-141.48;100.00;69781.59;4970089;29;20098;-61
2022/07/03 01:20:28;;;;;;;3.92;3.72;;;;;;;-141.48;100.00;69781.59;4987369;29;20036;-62
2022/07/03 01:24:18;;;;;;;4.05;3.75;;;;;;;-141.48;100.00;69781.59;4987222;29;20436;-62
2022/07/03 01:27:52;;;;;;;3.63;3.42;;;;;;;-141.48;100.00;69781.59;4958643;29;20038;-62
2022/07/03 01:31:21;;;;;;;5.55;4.18;;;;;;;-141.48;100.00;69781.59;4986941;29;20033;-61
2022/07/03 01:34:51;;;;;;;5.57;5.05;;;;;;;-141.48;100.00;69781.59;4985698;29;20063;-62
2022/07/03 01:38:22;;;;;;;4.60;4.40;;;;;;;-141.48;100.00;69781.59;4986709;29;20038;-62
2022/07/03 01:41:53;;;;;;;7.60;5.32;;;;;;;-141.48;100.00;69781.59;4987131;29;20033;-62
2022/07/03 01:45:24;;;;;;;5.45;5.15;;;;;;;-141.48;100.00;69781.59;4986099;29;20030;-61
2022/07/03 01:48:56;;;;;;;7.82;5.57;;;;;;;-141.48;100.00;69781.59;4982044;29;20037;-61
2022/07/03 01:52:26;;;;;;;6.45;6.05;;;;;;;-141.48;100.00;69781.59;4990265;29;20567;-62
2022/07/03 01:56:02;;;;;;;5.43;4.95;;;;;;;-141.48;100.00;69781.59;4989497;29;20027;-62
2022/07/03 01:59:31;;;;;;;7.57;5.18;;;;;;;-141.48;100.00;69781.59;4989728;29;20511;-62
2022/07/03 02:03:25;;;;;;;8.73;5.27;;;;;;;-141.48;100.00;69781.59;4989958;29;20034;-62
2022/07/03 02:07:06;;;;;;;4.40;4.22;;;;;;;-141.48;100.00;69781.59;4989809;29;20027;-62
2022/07/03 02:10:51;;;;;;;4.60;4.13;;;;;;;-141.48;100.00;69781.59;4989897;29;20039;-63
2022/07/03 02:14:31;;;;;;;3.80;3.55;;;;;;;-141.48;100.00;69781.59;4989419;29;20027;-62
2022/07/03 02:18:06;;;;;;;;;;;;;;;-141.48;100.00;69781.59;4990046;29;20026;-63
2022/07/03 02:21:45;;;;;;;7.47;4.15;;;;;;;-141.48;100.00;69781.59;4989702;29;20398;-63
2022/07/03 02:25:22;;;;;;;3.53;3.33;;;;;;;-141.48;100.00;69781.59;4989238;29;20538;-64
2022/07/03 02:28:55;;;;;;;4.55;4.25;;;;;;;-141.48;100.00;69781.59;4989334;29;20041;-64
2022/07/03 02:32:25;;;;;;;5.18;4.75;;;;;;;-141.48;100.00;69781.59;4989389;29;20139;-63
2022/07/03 02:35:55;;;;;;;;;;;;;;;-141.48;100.00;69781.59;4978652;29;20400;-62
2022/07/03 02:39:27;;;;;;;8.57;5.28;;;;;;;-141.48;100.00;69781.59;4989002;29;19920;-62
2022/07/03 02:43:01;;;;;;;4.60;4.15;;;;;;;-141.48;100.00;69781.59;4973511;29;20114;-63
2022/07/03 02:46:49;;;;;;;6.28;5.85;;;;;;;-141.48;100.00;69781.59;4969341;29;20035;-62
2022/07/03 02:50:28;;;;;;;7.10;5.22;;;;;;;-141.48;100.00;69781.59;4972388;29;20556;-63
2022/07/03 02:54:08;;;;;;;4.50;4.20;;;;;;;-141.48;100.00;69781.59;4969596;29;20027;-63
2022/07/03 02:58:03;;;;;;;3.58;3.38;;;;;;;-141.48;100.00;69781.59;4971148;29;20037;-63
2022/07/03 03:01:34;;;;;;;5.50;5.10;;;;;;;-141.48;100.00;69781.59;4969747;29;20109;-62
2022/07/03 03:05:15;;;;;;;5.22;4.70;;;;;;;-141.48;100.00;69781.59;4970259;29;20035;-62
2022/07/03 03:08:48;;;;;;;4.63;4.43;;;;;;;-141.48;100.00;69781.59;4974068;29;20392;-63
2022/07/03 03:12:35;;;;;;;5.75;4.68;;;;;;;-141.48;100.00;69781.59;4987376;29;20038;-63
2022/07/03 03:16:14;;;;;;;6.85;6.13;;;;;;;-141.48;100.00;69781.59;4987715;29;20030;-63
2022/07/03 03:19:46;;;;;;;5.25;4.68;;;;;;;-141.48;100.00;69781.59;4980916;29;20035;-64
2022/07/03 03:23:33;;;;;;;5.60;5.20;;;;;;;-141.48;100.00;69781.59;4972633;29;20114;-62
2022/07/03 03:27:02;;;;;;;8.35;5.05;;;;;;;-141.48;100.00;69781.59;4956134;29;20122;-64
2022/07/03 03:30:32;;;;;;;4.90;4.43;;;;;;;-141.48;100.00;69781.59;4981192;29;20035;-61
2022/07/03 03:34:03;;;;;;;4.65;4.45;;;;;;;-141.48;100.00;69781.59;4977873;29;20793;-63
2022/07/03 03:37:32;;;;;;;4.20;3.97;;;;;;;-141.48;100.00;69781.59;4987843;29;20038;-63
2022/07/03 03:41:03;;;;;;;8.57;4.45;;;;;;;-141.48;100.00;69781.59;4971715;29;20027;-64
2022/07/03 03:44:32;;;;;;;5.78;4.18;;;;;;;-141.48;100.00;69781.59;4986972;29;20034;-62
2022/07/03 03:48:02;;;;;;;6.25;5.75;;;;;;;-141.48;100.00;69781.59;4987726;29;20065;-64
2022/07/03 03:51:31;;;;;;;5.10;4.80;;;;;;;-141.48;100.00;69781.59;4966068;29;20035;-63
2022/07/03 03:55:00;;;;;;;6.23;4.33;;;;;;;-141.48;100.00;69781.59;4967300;29;20023;-63
2022/07/03 03:58:30;;;;;;;4.90;4.53;;;;;;;-141.48;100.00;69781.59;4975488;29;20109;-63
2022/07/03 04:01:58;;;;;;;;;;;;;;;-141.48;100.00;69781.59;4979289;29;20034;-63
2022/07/03 04:05:27;;;;;;;4.30;4.10;;;;;;;-141.48;100.00;69781.59;4970443;29;19950;-63
2022/07/03 04:08:56;;;;;;;3.72;3.63;;;;;;;-141.48;100.00;69781.59;4971817;29;20493;-63
2022/07/03 04:12:25;;;;;;;4.90;4.50;;;;;;;-141.48;100.00;69781.59;4979664;29;20060;-63
2022/07/03 04:15:56;;;;;;;5.37;4.87;;;;;;;-141.48;100.00;69781.59;4959401;29;20026;-62
2022/07/03 04:19:25;;;;;;;4.35;4.05;;;;;;;-141.48;100.00;69781.59;4968548;29;20488;-62
2022/07/03 04:22:53;;;;;;;3.88;3.67;;;;;;;-141.48;100.00;69781.59;4951847;29;20047;-63
2022/07/03 04:26:23;;;;;;;3.58;3.42;;;;;;;-141.48;100.00;69781.59;4986543;29;20034;-62
2022/07/03 04:29:40;;;;;;;3.75;3.65;;;;;;;-141.48;100.00;69781.59;4975862;29;20369;-62
2022/07/03 04:33:08;;;;;;;3.88;3.58;;;;;;;-141.48;100.00;69781.59;4955610;29;20042;-60
2022/07/03 04:36:37;;;;;;;6.47;3.88;;;;;;;-141.48;100.00;69781.59;4970134;29;20394;-61
2022/07/03 04:39:10;;;;;;;4.33;4.13;;;;;;;-141.48;100.00;69781.59;4968538;29;20042;-62
2022/07/03 04:41:45;;;;;;;3.28;3.08;;;;;;;14.28;100.00;90175.28;4965068;29;20290;-60
2022/07/03 04:45:14;;;;;;;3.67;3.47;;;;;;;-141.48;100.00;69781.59;4971024;29;20442;-62
2022/07/03 04:48:43;;;;;;;3.13;3.03;;;;;;;-141.48;100.00;69781.59;4954760;29;20038;-62
2022/07/03 04:52:12;;;;;;;3.72;3.63;;;;;;;-141.48;100.00;69781.59;4968272;29;20053;-62
2022/07/03 04:55:41;;;;;;;4.03;3.83;;;;;;;-141.48;100.00;69781.59;4973488;29;20122;-61
2022/07/03 04:59:06;;;;;;;5.15;3.35;;;;;;;-141.48;100.00;69781.59;4969102;29;20035;-60
2022/07/03 05:02:06;;;;;;;3.22;3.13;;;;;;;-141.48;100.00;69781.59;4964161;29;20023;-62
2022/07/03 05:05:27;;;;;;;3.15;3.05;;;;;;;-141.48;100.00;69781.59;4980736;29;20113;-62
2022/07/03 05:08:56;;;;;;;3.25;3.05;;;;;;;-141.48;100.00;69781.59;4982618;29;20058;-63
2022/07/03 05:11:57;;;;;;;7.03;3.15;;;;;;;-141.48;100.00;69781.59;4978994;29;20034;-62
2022/07/03 05:15:26;;;;;;;3.63;3.50;;;;;;;-141.48;100.00;69781.59;4985633;29;20113;-62
2022/07/03 05:18:55;;;;;;;2.30;2.20;;;;;;;-141.48;100.00;69781.59;4985830;29;20034;-62
2022/07/03 05:22:24;;;;;;;5.65;4.88;;;;;;;-141.48;100.00;69781.59;4988215;29;20037;-62
2022/07/03 05:25:49;;;;;;;2.95;2.85;;;;;;;-141.48;100.00;69781.59;4989237;29;20041;-62
2022/07/03 05:29:09;;;;;;;4.07;3.87;;;;;;;-141.48;100.00;69781.59;4974660;29;20030;-62
2022/07/03 05:32:38;;;;;;;;;;;;;;;-141.48;100.00;69781.59;4976967;29;20233;-61
2022/07/03 05:36:07;;;;;;;3.60;3.15;;;;;;;-141.48;100.00;69781.59;4972786;29;20399;-61
2022/07/03 05:39:35;;;;;;;3.95;3.63;;;;;;;-141.48;100.00;69781.59;4960105;29;20026;-60
2022/07/03 05:43:04;;;;;;;3.63;3.42;;;;;;;-141.48;100.00;69781.59;4989590;29;20073;-61
2022/07/03 05:46:17;;;;;;;3.50;3.40;;;;;;;-141.48;100.00;69781.59;4978004;29;20034;-60
2022/07/03 05:49:22;;;;;;;4.00;3.80;;;;;;;14.28;100.00;74834.94;4964482;29;20026;-61
2022/07/03 05:52:51;;;;;;;3.75;3.42;;;;;;;-141.48;100.00;69781.59;4970726;29;20076;-61
2022/07/03 05:55:45;;;;;;;4.20;4.00;;;;;;;-141.48;100.00;69781.59;4970257;29;20447;-61
2022/07/03 05:58:44;;;;;;;3.42;3.22;;;;;;;-141.48;100.00;69781.59;4970770;29;20038;-62
2022/07/03 06:01:15;;;;;;;4.75;4.25;;;;;;;-141.48;100.00;69781.59;4971087;29;20543;-61
2022/07/03 06:03:46;;;;;;;4.53;4.22;;;;;;;-141.48;100.00;69781.59;4967442;29;20035;-61
2022/07/03 06:06:22;;;;;;;6.43;4.95;;;;;;;-141.48;100.00;69781.59;4971024;29;20492;-60
2022/07/03 06:09:32;;;;;;;7.78;4.38;;;;;;;-141.48;100.00;69781.59;4970350;29;20062;-60
2022/07/03 06:12:24;;;;;;;4.00;3.70;;;;;;;-141.48;100.00;69781.59;4971006;29;20027;-61
2022/07/03 06:14:56;;;;;;;4.07;3.80;;;;;;;-141.48;100.00;69781.59;4989127;29;20034;-59
2022/07/03 06:17:27;;;;;;;4.18;3.97;;;;;;;-141.48;100.00;69781.59;4989599;29;20525;-61
2022/07/03 06:19:57;;;;;;;5.65;5.15;;;;;;;-141.48;100.00;69781.59;4972899;29;20030;-60
2022/07/03 06:22:28;;;;;;;9.65;4.78;;;;;;;-141.48;100.00;69781.59;4973267;29;20026;-61
2022/07/03 06:24:58;;;;;;;3.53;3.40;;;;;;;-141.48;100.00;69781.59;4988816;29;20724;-64
2022/07/03 06:27:29;;;;;;;4.40;3.90;;;;;;;-141.48;100.00;69781.59;4988826;29;20041;-60
2022/07/03 06:30:02;;;;;;;3.67;3.47;;;;;;;-141.48;100.00;69781.59;4989282;29;20507;-61
2022/07/03 06:33:31;;;;;;;4.65;4.35;;;;;;;-141.48;100.00;69781.59;4989304;29;20026;-60
2022/07/03 06:36:06;;;;;;;3.40;3.28;;;;;;;-141.48;100.00;69781.59;4988450;29;20113;-61
2022/07/03 06:39:35;;;;;;;4.95;4.43;;;;;;;-141.48;100.00;69781.59;4989574;29;20027;-60
2022/07/03 06:43:04;;;;;;;4.35;3.83;;;;;;;-141.48;100.00;69781.59;4988187;29;20034;-61
2022/07/03 06:46:32;;;;;;;4.15;3.80;;;;;;;-141.48;100.00;69781.59;4985539;24;20065;-85
2022/07/03 06:50:01;;;;;;;5.53;5.13;;;;;;;-141.48;100.00;69781.59;4975866;29;20439;-86
2022/07/03 06:53:30;;;;;;;5.97;3.83;;;;;;;-141.48;100.00;69781.59;4972480;29;20059;-84
2022/07/03 06:56:58;;;;;;;2.92;2.83;;;;;;;-141.48;100.00;69781.59;4973139;29;20043;-85
2022/07/03 07:00:27;;;;;;;3.30;3.20;;;;;;;-141.48;100.00;69781.59;4973584;29;20031;-84
2022/07/03 07:03:56;;;;;;;3.92;2.88;;;;;;;-141.48;100.00;69781.59;4959391;29;20379;-85
2022/07/03 07:07:25;;;;;;;3.42;3.22;;;;;;;-141.48;100.00;69781.59;4974265;29;20022;-85
2022/07/03 07:10:54;;;;;;;4.40;4.07;;;;;;;-141.48;100.00;69781.59;4975385;29;20039;-87
2022/07/03 07:14:19;;;;;;;3.08;2.97;;;;;;;-141.48;100.00;69781.59;4973336;29;20122;-86
2022/07/03 07:16:50;;;;;;;3.92;2.70;;;;;;;-141.48;100.00;69781.59;4975554;29;20092;-87
2022/07/03 07:19:20;;;;;;;3.10;3.00;;;;;;;-141.48;100.00;69781.59;4974980;29;20566;-86
2022/07/03 07:22:25;;;;;;;3.50;3.30;;;;;;;-141.48;100.00;69781.59;4973464;29;20470;-85
2022/07/03 07:25:40;;;;;;;3.20;2.88;;;;;;;-141.48;100.00;69781.59;4974228;29;20027;-86
2022/07/03 07:28:16;;;;;;;3.80;3.60;;;;;;;-141.48;100.00;69781.59;4975637;29;20034;-87
2022/07/03 07:30:48;;;;;;;2.80;2.70;;;;;;;-141.48;100.00;69781.59;4973813;29;20115;-86
2022/07/03 07:33:21;;;;;;;2.95;2.78;;;;;;;-141.48;100.00;69781.59;4958782;29;20049;-86
2022/07/03 07:35:57;;;;;;;3.15;3.05;;;;;;;-141.48;100.00;69781.59;4978505;29;20482;-86
2022/07/03 07:38:27;;;;;;;5.00;3.42;;;;;;;-141.48;100.00;69781.59;4976437;29;20039;-86
2022/07/03 07:40:58;;;;;;;4.10;3.50;;;;;;;-141.48;100.00;69781.59;4974146;29;20038;-86
2022/07/03 07:43:28;;;;;;;5.50;3.30;;;;;;;-141.48;100.00;69781.59;4958236;29;20084;-86
2022/07/03 07:46:33;;;;;;;3.10;2.95;;;;;;;-141.48;100.00;69781.59;4973568;29;20115;-86
2022/07/03 07:50:02;;;;;;;3.15;3.03;;;;;;;-141.48;100.00;69781.59;4974883;29;20023;-88
2022/07/03 07:53:30;;;;;;;2.95;2.75;;;;;;;-141.48;100.00;69781.59;4975431;29;20035;-86
2022/07/03 07:56:59;;;;;;;5.10;4.70;;;;;;;-141.48;100.00;69781.59;4958220;29;20168;-87
2022/07/03 08:00:28;;;;;;;3.83;3.47;;;;;;;-141.48;100.00;69781.59;4958929;29;20027;-87
2022/07/03 08:07:44;;;;;;;3.60;3.40;;;;;;;-141.48;100.00;69781.59;4975221;29;20050;-86
2022/07/03 08:11:13;;;;;;;3.70;3.50;;;;;;;-141.48;100.00;69781.59;4959430;29;20502;-87
2022/07/03 08:14:42;;;;;;;5.85;4.22;;;;;;;-141.48;100.00;69781.59;4958396;29;20448;-87
2022/07/03 08:18:05;;;;;;;9.10;3.67;;;;;;;-141.48;100.00;69781.59;4976581;29;20300;-88
2022/07/03 08:20:43;;;;;;;4.40;3.80;;;;;;;-141.48;100.00;69781.59;4979222;29;20047;-87
2022/07/03 08:23:26;;;;;;;3.40;3.20;;;;;;;-141.48;100.00;69781.59;4964285;29;20596;-88
2022/07/03 08:26:00;;;;;;;4.90;3.17;;;;;;;-141.48;100.00;69781.59;4975009;29;20027;-86
2022/07/03 08:28:30;;;;;;;3.28;3.03;;;;;;;-141.48;100.00;69781.59;4976012;29;20071;-85
2022/07/03 08:31:01;;;;;;;5.18;2.80;;;;;;;-141.48;100.00;69781.59;4943967;29;20034;-85
2022/07/03 08:33:31;;;;;;;2.88;2.78;;;;;;;-141.48;100.00;69781.59;4959020;29;20209;-85
2022/07/03 08:36:02;;;;;;;4.65;4.07;;;;;;;-141.48;100.00;69781.59;4980257;29;20030;-85
2022/07/03 08:38:34;;;;;;;3.83;3.63;;;;;;;-141.48;100.00;69781.59;4982717;29;20026;-86
2022/07/03 08:41:18;;;;;;;13.80;3.50;;;;;;;-141.48;100.00;69781.59;4975470;29;20035;-86
2022/07/03 08:44:35;;;;;;;6.63;3.15;;;;;;;-141.48;100.00;69781.59;4975166;29;20027;-85
2022/07/03 08:48:07;;;;;;;2.40;2.22;;;;;;;-141.48;100.00;69781.59;4975663;29;20378;-86
2022/07/03 08:51:36;;;;;;;2.95;2.72;;;;;;;-141.48;100.00;69781.59;4975429;29;20023;-85
2022/07/03 08:55:05;;;;;;;;;;;;;;;-141.48;100.00;69781.59;4973761;29;20058;-83
2022/07/03 08:58:35;;;;;;;2.15;2.05;;;;;;;-141.48;100.00;69781.59;4961657;29;19917;-85
2022/07/03 09:02:05;;;;;;;2.65;2.45;;;;;;;-141.48;100.00;69781.59;4984716;29;20059;-86
2022/07/03 09:05:35;;;;;;;1.73;1.73;;;;;;;-141.48;100.00;69781.59;4979110;29;20116;-86
2022/07/03 09:09:06;;;;;;;3.78;2.53;;;;;;;-141.48;100.00;69781.59;4979782;29;20026;-85
2022/07/03 09:12:36;;;;;;;2.67;2.47;;;;;;;-141.48;100.00;69781.59;4969253;29;20139;-86
2022/07/03 09:16:13;;;;;;;3.35;3.10;;;;;;;-141.48;100.00;69781.59;4958675;30;20092;-86
2022/07/03 09:19:43;;;;;;;3.58;2.35;;;;;;;-141.48;100.00;69781.59;4958565;30;20065;-87
2022/07/03 09:22:20;;;;;;;2.63;2.53;;;;;;;-141.48;100.00;69781.59;4958781;30;20043;-86
2022/07/03 09:24:53;;;;;;;5.38;2.40;;;;;;;-141.48;100.00;69781.59;4943259;30;20202;-86
2022/07/03 09:27:23;;;;;;;3.53;3.33;;;;;;;-141.48;100.00;69781.59;4959171;30;20062;-88
2022/07/03 09:30:15;;;;;;;2.50;2.40;;;;;;;-141.48;100.00;69781.59;4957630;30;20051;-88
2022/07/03 09:32:49;;;;;;;2.63;2.47;;;;;;;-141.48;100.00;69781.59;4958531;30;20038;-88
2022/07/03 09:35:26;;;;;;;3.03;2.53;;;;;;;-141.48;100.00;69781.59;4943354;30;20092;-87
2022/07/03 09:37:58;;;;;;;7.82;3.58;;;;;;;-141.48;100.00;69781.59;4958276;30;20039;-88
2022/07/03 09:40:51;;;;;;;1.55;1.55;;;;;;;-141.48;100.00;69781.59;4956676;30;20031;-87
2022/07/03 09:43:28;;;;;;;3.80;2.58;;;;;;;-141.48;100.00;69781.59;4943035;30;20088;-87
2022/07/03 09:47:25;;;;;;;1.55;1.50;;;;;;;-141.48;100.00;69781.59;4927831;30;20045;-88
2022/07/03 09:51:15;;;;;;;2.13;1.98;;;;;;;-141.48;100.00;69781.59;4950106;30;20058;-88
2022/07/03 09:54:56;;;;;;;1.92;1.83;;;;;;;-141.48;100.00;69781.59;4957353;30;20035;-86
2022/07/03 09:58:29;;;;;;;2.20;2.10;;;;;;;-141.48;100.00;69781.59;4941980;30;20038;-87
2022/07/03 10:02:13;;;;;;;2.28;1.90;;;;;;;-141.48;100.00;69781.59;4943917;30;20027;-87
2022/07/03 10:05:42;;;;;;;2.97;1.80;;;;;;;-141.48;100.00;69781.59;4941994;30;20023;-87
2022/07/03 10:09:15;;;;;;;2.53;2.38;;;;;;;-141.48;100.00;69781.59;4958194;29;20034;-87
2022/07/03 10:12:44;;;;;;;2.45;2.25;;;;;;;-141.48;100.00;69781.59;4958506;30;20072;-86
2022/07/03 10:16:14;;;;;;;1.75;1.75;;;;;;;-141.48;100.00;69781.59;4956846;30;20035;-88
2022/07/03 10:19:44;;;;;;;2.13;2.03;;;;;;;-141.48;100.00;69781.59;4960501;30;20039;-85
2022/07/03 10:22:22;;;;;;;4.90;3.30;;;;;;;-141.48;100.00;69781.59;4963310;30;20091;-84
2022/07/03 10:25:03;;;;;;;3.58;1.98;;;;;;;-141.48;100.00;69781.59;4964775;30;20027;-89
2022/07/03 10:27:35;;;;;;;1.80;1.70;;;;;;;-141.48;100.00;69781.59;4965128;30;20031;-87
2022/07/03 10:30:06;;;;;;;1.70;1.70;;;;;;;-141.48;100.00;69781.59;4968366;29;20030;-89
2022/07/03 10:32:39;;;;;;;1.73;1.63;;;;;;;-141.48;100.00;69781.59;4977237;29;20035;-88
2022/07/03 10:35:11;;;;;;;1.75;1.70;;;;;;;-141.48;100.00;69781.59;4960489;29;20042;-86
2022/07/03 10:38:14;;;;;;;1.85;1.65;;;;;;;-141.48;100.00;69781.59;4977625;29;20033;-90
2022/07/03 10:47:03;;;;;;;3.92;2.75;;;;;;;-141.48;100.00;69781.59;4975945;29;20099;-89
2022/07/03 10:56:17;;;;;;;2.55;2.45;;;;;;;-141.48;100.00;69781.59;4948606;30;20415;-89
2022/07/03 10:58:58;;;;;;;1.70;1.60;;;;;;;-141.48;100.00;69781.59;4970414;29;20043;-88
2022/07/03 11:01:29;;;;;;;1.67;1.67;;;;;;;-141.48;100.00;69781.59;4960676;29;20026;-88
2022/07/03 11:04:03;;;;;;;2.53;2.33;;;;;;;-141.48;100.00;69781.59;4960403;29;20065;-87
2022/07/03 11:06:51;;;;;;;2.05;1.70;;;;;;;-141.48;100.00;69781.59;4959826;29;20041;-87
2022/07/03 11:10:19;;;;;;;1.55;1.55;;;;;;;-141.48;100.00;69781.59;4975870;29;20034;-89
2022/07/03 11:13:07;;;;;;;12.50;2.53;;;;;;;-141.48;100.00;69781.59;4974887;29;20034;-88
2022/07/03 11:15:54;;;;;;;2.25;2.13;;;;;;;-141.48;100.00;69781.59;4959595;29;20035;-88
2022/07/03 11:18:31;;;;;;;1.70;1.70;;;;;;;-141.48;100.00;69781.59;4974144;29;20034;-89
2022/07/03 11:21:15;;;;;;;1.67;1.40;;;;;;;-141.48;100.00;69781.59;4975337;29;20027;-89
2022/07/03 11:24:01;;;;;;;1.50;1.40;;;;;;;-141.48;100.00;69781.59;4977820;29;20506;-89
2022/07/03 11:26:32;;;;;;;1.60;1.60;;;;;;;-141.48;100.00;69781.59;4977027;29;20038;-89
2022/07/03 11:29:03;;;;;;;1.55;1.40;;;;;;;-141.48;100.00;69781.59;4977021;29;20468;-90
2022/07/03 11:31:34;;;;;;;3.53;2.00;;;;;;;-141.48;100.00;69781.59;4974979;29;20023;-90
2022/07/03 11:34:05;;;;;;;1.63;1.58;;;;;;;-141.48;100.00;69781.59;4975775;29;20509;-88
2022/07/03 11:36:37;;;;;;;5.43;2.70;;;;;;;-141.48;100.00;69781.59;4975467;29;20043;-87
2022/07/03 11:39:09;;;;;;;2.08;1.88;;;;;;;-141.48;100.00;69781.59;4962126;24;20047;-63
2022/07/03 11:41:39;;;;;;;1.42;1.35;;;;;;;-141.48;100.00;69781.59;4968886;29;20034;-64
2022/07/03 11:44:18;;;;;;;1.63;1.50;;;;;;;-141.48;100.00;69781.59;4952388;29;20560;-64
2022/07/03 11:46:50;;;;;;;1.42;1.42;;;;;;;-141.48;100.00;69781.59;4969271;29;20034;-63
2022/07/03 11:49:22;;;;;;;1.48;1.48;;;;;;;-141.48;100.00;69781.59;4952874;29;20043;-63
2022/07/03 11:52:06;;;;;;;1.85;1.73;;;;;;;-141.48;100.00;69781.59;4968972;29;20030;-65
2022/07/03 11:55:18;;;;;;;1.50;1.50;;;;;;;-141.48;100.00;69781.59;4968291;29;20034;-63
2022/07/03 11:57:59;;;;;;;3.10;1.98;;;;;;;-141.48;100.00;69781.59;4952968;29;20042;-64
2022/07/03 12:01:32;;;;;;;2.38;2.08;;;;;;;-141.48;100.00;69781.59;4968879;29;20142;-64
2022/07/03 12:04:12;;;;;;;15.43;2.08;;;;;;;-141.48;100.00;69781.59;4951920;29;20031;-64
2022/07/03 12:06:51;;;;;;;3.00;1.75;;;;;;;-141.48;100.00;69781.59;4952589;29;20030;-64
2022/07/03 12:09:40;;;;;;;5.43;2.10;;;;;;;-141.48;100.00;69781.59;4952210;29;20131;-64
2022/07/03 12:13:23;;;;;;;1.95;1.63;;;;;;;-141.48;100.00;69781.59;4968732;29;20434;-64
2022/07/03 12:16:52;;;;;;;3.47;2.67;;;;;;;-141.48;100.00;69781.59;4952725;29;20039;-65
2022/07/03 12:20:21;;;;;;;2.00;1.90;;;;;;;-141.48;100.00;69781.59;4968770;29;20101;-64
2022/07/03 12:23:51;;;;;;;1.48;1.48;;;;;;;-141.48;100.00;69781.59;4968366;29;20414;-64
2022/07/03 12:27:32;;;;;;;1.67;1.67;;;;;;;-141.48;100.00;69781.59;4952238;29;20552;-64
2022/07/03 12:31:02;;;;;;;3.95;2.45;;;;;;;-141.48;100.00;69781.59;4967692;29;20084;-63
2022/07/03 12:34:31;;;;;;;1.67;1.35;;;;;;;-141.48;100.00;69781.59;4967817;29;20049;-63
2022/07/03 12:38:00;;;;;;;2.00;1.90;;;;;;;-141.48;100.00;69781.59;4968179;29;20030;-64
2022/07/03 12:41:29;;;;;;;;;;;;;;;-141.48;100.00;69781.59;4967967;29;20604;-63
2022/07/03 12:44:59;;;;;;;2.35;2.15;;;;;;;-141.48;100.00;69781.59;4951056;29;19966;-63
2022/07/03 12:48:29;;;;;;;1.60;1.55;;;;;;;-141.48;100.00;69781.59;4934128;30;20052;-77
2022/07/03 12:51:58;;;;;;;1.60;1.50;;;;;;;-141.48;100.00;69781.59;4926950;30;20140;-79
2022/07/03 12:55:43;;;;;;;2.20;2.10;;;;;;;-141.48;100.00;69781.59;4942045;30;20118;-78
2022/07/03 12:59:26;;;;;;;1.52;1.52;;;;;;;-141.48;100.00;69781.59;4937343;30;20051;-77
2022/07/03 13:07:13;;;;;;;1.35;1.35;;;;;;;-141.48;100.00;69781.59;4967521;24;20058;-61
2022/07/03 13:10:59;;;;;;;2.00;1.80;;;;;;;-141.48;100.00;69781.59;4966767;29;20519;-61
2022/07/03 13:14:54;;;;;;;1.80;1.70;;;;;;;-141.48;100.00;69781.59;4965487;29;20158;-61
2022/07/03 13:23:42;;;;;;;;;;;;;;;;;;;;;
2022/07/03 13:27:24;;;;;;;3.05;1.50;;;;;;;-141.48;100.00;69781.59;4967006;30;20063;-87
2022/07/03 13:30:53;;;;;;;4.35;1.50;;;;;;;-141.48;100.00;69781.59;4930969;29;20046;-88
2022/07/03 13:34:22;;;;;;;;;;;;;;;-141.48;100.00;69781.59;4931360;30;20036;-88
2022/07/03 13:37:54;;;;;;;1.60;1.60;;;;;;;-141.48;100.00;69781.59;4933629;30;19939;-89
2022/07/03 13:41:33;;;;;;;8.07;2.95;;;;;;;-141.48;100.00;69781.59;4949078;30;20036;-87
2022/07/03 13:45:02;;;;;;;1.52;1.52;;;;;;;-141.48;100.00;69781.59;4933798;30;20165;-88
2022/07/03 13:48:43;;;;;;;1.75;1.67;;;;;;;-141.48;100.00;69781.59;4932678;30;20104;-88
2022/07/03 13:52:13;;;;;;;1.40;1.40;;;;;;;-141.48;100.00;69781.59;4934597;30;20082;-88
2022/07/03 13:55:42;;;;;;;1.50;1.50;;;;;;;-141.48;100.00;69781.59;4932766;30;20038;-88
2022/07/03 13:59:13;;;;;;;2.30;2.17;;;;;;;-141.48;100.00;69781.59;4934560;30;20044;-88
2022/07/03 14:02:46;;;;;;;2.03;1.60;;;;;;;-141.48;100.00;69781.59;4951610;30;20065;-88
2022/07/03 14:06:17;;;;;;;1.75;1.60;;;;;;;-141.48;100.00;69781.59;4934548;30;20051;-87
2022/07/03 14:09:47;;;;;;;2.65;1.88;;;;;;;-141.48;100.00;69781.59;4934415;30;20060;-88
2022/07/03 14:13:02;;;;;;;8.00;2.85;;;;;;;-141.48;100.00;69781.59;4932441;30;20523;-90
2022/07/03 14:16:33;;;;;;;5.57;2.63;;;;;;;-141.48;100.00;69781.59;4931061;30;20040;-88
2022/07/03 14:20:08;;;;;;;1.45;1.45;;;;;;;-141.48;100.00;69781.59;4924817;30;20441;-88
2022/07/03 14:23:38;;;;;;;1.67;1.50;;;;;;;-141.48;100.00;69781.59;4921381;30;20040;-89
2022/07/03 14:34:47;;;;;;;1.38;1.38;;;;;;;-141.48;100.00;69781.59;4928701;30;20063;-86
2022/07/03 14:38:16;;;;;;;1.73;1.70;;;;;;;-141.48;100.00;69781.59;4927075;30;20042;-85
2022/07/03 14:41:48;;;;;;;1.70;1.60;;;;;;;-141.48;100.00;69781.59;4924243;30;20139;-85
2022/07/03 14:45:18;;;;;;;2.65;2.55;;;;;;;-141.48;100.00;69781.59;4909913;30;20056;-85
2022/07/03 14:48:47;;;;;;;13.90;8.52;;;;;;;-141.48;100.00;69781.59;4923371;30;20039;-85
2022/07/03 14:52:17;;;;;;;6.10;5.57;;;;;;;-141.48;100.00;69781.59;4940435;30;20020;-84
2022/07/03 14:55:46;;;;;;;9.48;7.28;;;;;;;-141.48;100.00;69781.59;4925008;30;20155;-83
2022/07/03 14:59:19;;;;;;;14.13;13.05;;;;;;;-141.48;100.00;69781.59;4924244;30;20042;-85
2022/07/03 15:03:13;;;;;;;4.07;3.88;;;;;;;-141.48;100.00;69781.59;4938672;30;20049;-84
2022/07/03 15:06:44;;;;;;;2.65;2.40;;;;;;;-141.48;100.00;69781.59;4931345;30;20054;-86
2022/07/03 15:10:18;;;;;;;3.30;3.03;;;;;;;-141.48;100.00;69781.59;4939327;30;20039;-86
2022/07/03 15:13:51;;;;;;;2.72;2.55;;;;;;;-141.48;100.00;69781.59;4939358;30;20032;-86
2022/07/03 15:17:20;;;;;;;3.35;1.70;;;;;;;-141.48;100.00;69781.59;4920841;30;20044;-86
2022/07/03 15:20:50;;;;;;;3.90;3.58;;;;;;;-141.48;100.00;69781.59;4939125;30;20142;-86
2022/07/03 15:24:25;;;;;;;1.95;1.63;;;;;;;-141.48;100.00;69781.59;4922079;30;20028;-87
2022/07/03 15:27:55;;;;;;;3.53;2.80;;;;;;;-141.48;100.00;69781.59;4937988;30;20035;-86